Kent Trader — 9HA4334 — position and weather

sailwx.info

Track history (hours):
 
Tides and Currents Weather Stations Pressure Air Temp Water Temp Dewpoint Dewpoint Depression Visibility Wind Speed Wind Dir Waves Ship Positions

Kent Trader

Last reported at 2017-Nov-18 23:59 UTC. Time now 2017-Nov-20 23:09 UTC.
Position N 42°56' E 006°50'.

Length 200 m; draft 8 m.

Type: Ship (hazmat cat A). MMSI: 249682000.

Date/timePositionNaut miles runAvg speedWind from/ knotsBaromVisibWave heightAir tempDewpointWater temp
2017-Nov-18 23:59N 42°56' E 006°50'1214.6
2017-Nov-18 23:08N 43°04' E 007°03'314.1
2017-Nov-18 22:56N 43°06' E 007°06'614.2
2017-Nov-18 22:31N 43°10' E 007°12'713.6
2017-Nov-18 22:00N 43°14' E 007°20'813.5
2017-Nov-18 21:26N 43°19' E 007°28'613.5
2017-Nov-18 21:00N 43°23' E 007°34'3414.0
2017-Nov-18 18:34N 43°45' E 008°10'514.0
2017-Nov-18 18:11N 43°49' E 008°15'314.2
2017-Nov-18 18:00N 43°51' E 008°18'714.3
2017-Nov-18 17:30N 43°56' E 008°25'714.2
2017-Nov-18 17:00N 44°01' E 008°31'714.1
2017-Nov-18 16:30N 44°06' E 008°38'714.5
2017-Nov-18 16:00N 44°11' E 008°45'714.5
2017-Nov-18 15:30N 44°16' E 008°52'612.6
2017-Nov-18 15:00N 44°21' E 008°57'4 7.9
2017-Nov-18 14:30N 44°24' E 008°53'0 0.6
2017-Nov-18 14:00N 44°24' E 008°53'0 0.0
2017-Nov-18 13:30N 44°24' E 008°53'0 0.0
2017-Nov-18 13:00N 44°24' E 008°53'0 0.0
2017-Nov-18 12:30N 44°24' E 008°53'0 0.0
2017-Nov-18 12:00N 44°24' E 008°53'0 0.0
2017-Nov-18 11:30N 44°24' E 008°53'0 0.0
2017-Nov-18 11:00N 44°24' E 008°53'0 0.0
2017-Nov-18 10:30N 44°24' E 008°53'0 0.0
2017-Nov-18 10:00N 44°24' E 008°53'0 0.0
2017-Nov-18 09:30N 44°24' E 008°53'0 0.0
2017-Nov-18 09:00N 44°24' E 008°53'0 0.0
2017-Nov-18 08:30N 44°24' E 008°53'0 0.0
2017-Nov-18 08:00N 44°24' E 008°53'0 0.0
2017-Nov-18 07:30N 44°24' E 008°53'0 0.0
2017-Nov-18 07:00N 44°24' E 008°53'0 0.0
2017-Nov-18 06:30N 44°24' E 008°53'0 0.0
2017-Nov-18 06:00N 44°24' E 008°53'0 0.0
2017-Nov-18 05:30N 44°24' E 008°53'0 0.0
2017-Nov-18 05:00N 44°24' E 008°53'0 0.0
2017-Nov-18 04:30N 44°24' E 008°53'0 0.0
2017-Nov-18 04:00N 44°24' E 008°53'0 0.0
2017-Nov-18 03:30N 44°24' E 008°53'0 0.0
2017-Nov-18 03:00N 44°24' E 008°53'0 0.0
2017-Nov-18 02:30N 44°24' E 008°53'0 0.0
2017-Nov-18 02:00N 44°24' E 008°53'0 0.0
2017-Nov-18 01:30N 44°24' E 008°53'0 0.0
2017-Nov-18 01:00N 44°24' E 008°53'0 0.0
2017-Nov-18 00:30N 44°24' E 008°53'0 0.0
2017-Nov-18 00:00N 44°24' E 008°53'0 0.0
2017-Nov-17 23:30N 44°24' E 008°53'0 0.0
2017-Nov-17 23:00N 44°24' E 008°53'0 0.0
2017-Nov-17 22:30N 44°24' E 008°53'0 0.0
2017-Nov-17 22:00N 44°24' E 008°53'0 0.0
2017-Nov-17 21:30N 44°24' E 008°53'0 0.0
2017-Nov-17 21:00N 44°24' E 008°53'0 0.0
2017-Nov-17 20:30N 44°24' E 008°53'0 0.0
2017-Nov-17 20:00N 44°24' E 008°53'0 0.0
2017-Nov-17 19:30N 44°24' E 008°53'0 0.0
2017-Nov-17 19:00N 44°24' E 008°53'0 0.0
2017-Nov-17 18:30N 44°24' E 008°53'0 0.0
2017-Nov-17 18:00N 44°24' E 008°53'2 4.1
2017-Nov-17 17:30N 44°24' E 008°56'3 5.9
2017-Nov-17 17:00N 44°21' E 008°58'2 4.4
2017-Nov-17 16:30N 44°19' E 008°58'3 5.9
2017-Nov-17 16:00N 44°17' E 008°55'4 7.7
2017-Nov-17 15:30N 44°14' E 008°52'5 9.3
2017-Nov-17 15:00N 44°10' E 008°48'4 8.8
2017-Nov-17 14:30N 44°08' E 008°43'5 9.5
2017-Nov-17 14:00N 44°05' E 008°38'5 9.8
2017-Nov-17 13:30N 44°01' E 008°33'611.5
2017-Nov-17 13:00N 43°57' E 008°28'612.3
2017-Nov-17 12:30N 43°53' E 008°21'3812.3
2017-Nov-17 09:25N 43°28' E 007°42'612.9
2017-Nov-17 08:57N 43°24' E 007°36'913.0
2017-Nov-17 08:15N 43°18' E 007°27'313.5
2017-Nov-17 08:00N 43°15' E 007°23'713.1
2017-Nov-17 07:26N 43°11' E 007°15'613.2
2017-Nov-17 07:00N 43°09' E 007°08'47013.0
2017-Nov-15 18:51N 37°45' W 000°21'513.5
2017-Nov-15 18:30N 37°41' W 000°24'713.6
2017-Nov-15 18:00N 37°35' W 000°29'713.6
2017-Nov-15 17:30N 37°30' W 000°34'713.6
2017-Nov-15 17:00N 37°26' W 000°41'713.6
2017-Nov-15 16:31N 37°22' W 000°47'813.9
2017-Nov-15 15:58N 37°17' W 000°55'613.6
2017-Nov-15 15:29N 37°13' W 001°01'21513.6
2017-Nov-14 23:38N 36°01' W 005°13'216.1
2017-Nov-14 23:30N 36°00' W 005°16'815.9
2017-Nov-14 23:00N 35°58' W 005°25'9313.6
2017-Nov-14 16:10N 35°29' W 007°14'214.4
2017-Nov-14 16:00N 35°28' W 007°16'714.3
2017-Nov-14 15:30N 35°23' W 007°23'54414.5
2017-Nov-13 02:00N 28°00' W 013°34'714.4
2017-Nov-13 01:31N 27°54' W 013°38'714.1
2017-Nov-13 01:00N 27°48' W 013°42'714.1
2017-Nov-13 00:30N 27°43' W 013°47'713.8
2017-Nov-13 00:00N 27°38' W 013°53'713.6
2017-Nov-12 23:30N 27°33' W 013°58'714.4
2017-Nov-12 23:00N 27°28' W 014°04'714.7
2017-Nov-12 22:30N 27°23' W 014°10'714.9
2017-Nov-12 22:00N 27°17' W 014°16'714.6
2017-Nov-12 21:30N 27°12' W 014°21'714.9
2017-Nov-12 21:00N 27°06' W 014°26'715.0
2017-Nov-12 20:30N 27°01' W 014°32'715.0
2017-Nov-12 20:00N 26°55' W 014°37'815.0
2017-Nov-12 19:29N 26°49' W 014°43'915.2
2017-Nov-12 18:52N 26°42' W 014°50'  
Track history (hours):
 
Tides and Currents Weather Stations Pressure Air Temp Water Temp Dewpoint Dewpoint Depression Visibility Wind Speed Wind Dir Waves Ship Positions

Kent Trader

Last reported at 2017-Nov-18 23:59 UTC. Time now 2017-Nov-20 23:09 UTC.
Position N 42°56' E 006°50'.

Length 200 m; draft 8 m.

Type: Ship (hazmat cat A). MMSI: 249682000.

Date/timePositionNaut miles runAvg speedWind from/ knotsBaromVisibWave heightAir tempDewpointWater temp
2017-Nov-18 23:59N 42°56' E 006°50'1214.6
2017-Nov-18 23:08N 43°04' E 007°03'314.1
2017-Nov-18 22:56N 43°06' E 007°06'614.2
2017-Nov-18 22:31N 43°10' E 007°12'713.6
2017-Nov-18 22:00N 43°14' E 007°20'813.5
2017-Nov-18 21:26N 43°19' E 007°28'613.5
2017-Nov-18 21:00N 43°23' E 007°34'3414.0
2017-Nov-18 18:34N 43°45' E 008°10'514.0
2017-Nov-18 18:11N 43°49' E 008°15'314.2
2017-Nov-18 18:00N 43°51' E 008°18'714.3
2017-Nov-18 17:30N 43°56' E 008°25'714.2
2017-Nov-18 17:00N 44°01' E 008°31'714.1
2017-Nov-18 16:30N 44°06' E 008°38'714.5
2017-Nov-18 16:00N 44°11' E 008°45'714.5
2017-Nov-18 15:30N 44°16' E 008°52'612.6
2017-Nov-18 15:00N 44°21' E 008°57'4 7.9
2017-Nov-18 14:30N 44°24' E 008°53'0 0.6
2017-Nov-18 14:00N 44°24' E 008°53'0 0.0
2017-Nov-18 13:30N 44°24' E 008°53'0 0.0
2017-Nov-18 13:00N 44°24' E 008°53'0 0.0
2017-Nov-18 12:30N 44°24' E 008°53'0 0.0
2017-Nov-18 12:00N 44°24' E 008°53'0 0.0
2017-Nov-18 11:30N 44°24' E 008°53'0 0.0
2017-Nov-18 11:00N 44°24' E 008°53'0 0.0
2017-Nov-18 10:30N 44°24' E 008°53'0 0.0
2017-Nov-18 10:00N 44°24' E 008°53'0 0.0
2017-Nov-18 09:30N 44°24' E 008°53'0 0.0
2017-Nov-18 09:00N 44°24' E 008°53'0 0.0
2017-Nov-18 08:30N 44°24' E 008°53'0 0.0
2017-Nov-18 08:00N 44°24' E 008°53'0 0.0
2017-Nov-18 07:30N 44°24' E 008°53'0 0.0
2017-Nov-18 07:00N 44°24' E 008°53'0 0.0
2017-Nov-18 06:30N 44°24' E 008°53'0 0.0
2017-Nov-18 06:00N 44°24' E 008°53'0 0.0
2017-Nov-18 05:30N 44°24' E 008°53'0 0.0
2017-Nov-18 05:00N 44°24' E 008°53'0 0.0
2017-Nov-18 04:30N 44°24' E 008°53'0 0.0
2017-Nov-18 04:00N 44°24' E 008°53'0 0.0
2017-Nov-18 03:30N 44°24' E 008°53'0 0.0
2017-Nov-18 03:00N 44°24' E 008°53'0 0.0
2017-Nov-18 02:30N 44°24' E 008°53'0 0.0
2017-Nov-18 02:00N 44°24' E 008°53'0 0.0
2017-Nov-18 01:30N 44°24' E 008°53'0 0.0
2017-Nov-18 01:00N 44°24' E 008°53'0 0.0
2017-Nov-18 00:30N 44°24' E 008°53'0 0.0
2017-Nov-18 00:00N 44°24' E 008°53'0 0.0
2017-Nov-17 23:30N 44°24' E 008°53'0 0.0
2017-Nov-17 23:00N 44°24' E 008°53'0 0.0
2017-Nov-17 22:30N 44°24' E 008°53'0 0.0
2017-Nov-17 22:00N 44°24' E 008°53'0 0.0
2017-Nov-17 21:30N 44°24' E 008°53'0 0.0
2017-Nov-17 21:00N 44°24' E 008°53'0 0.0
2017-Nov-17 20:30N 44°24' E 008°53'0 0.0
2017-Nov-17 20:00N 44°24' E 008°53'0 0.0
2017-Nov-17 19:30N 44°24' E 008°53'0 0.0
2017-Nov-17 19:00N 44°24' E 008°53'0 0.0
2017-Nov-17 18:30N 44°24' E 008°53'0 0.0
2017-Nov-17 18:00N 44°24' E 008°53'2 4.1
2017-Nov-17 17:30N 44°24' E 008°56'3 5.9
2017-Nov-17 17:00N 44°21' E 008°58'2 4.4
2017-Nov-17 16:30N 44°19' E 008°58'3 5.9
2017-Nov-17 16:00N 44°17' E 008°55'4 7.7
2017-Nov-17 15:30N 44°14' E 008°52'5 9.3
2017-Nov-17 15:00N 44°10' E 008°48'4 8.8
2017-Nov-17 14:30N 44°08' E 008°43'5 9.5
2017-Nov-17 14:00N 44°05' E 008°38'5 9.8
2017-Nov-17 13:30N 44°01' E 008°33'611.5
2017-Nov-17 13:00N 43°57' E 008°28'612.3
2017-Nov-17 12:30N 43°53' E 008°21'3812.3
2017-Nov-17 09:25N 43°28' E 007°42'612.9
2017-Nov-17 08:57N 43°24' E 007°36'913.0
2017-Nov-17 08:15N 43°18' E 007°27'313.5
2017-Nov-17 08:00N 43°15' E 007°23'713.1
2017-Nov-17 07:26N 43°11' E 007°15'613.2
2017-Nov-17 07:00N 43°09' E 007°08'47013.0
2017-Nov-15 18:51N 37°45' W 000°21'513.5
2017-Nov-15 18:30N 37°41' W 000°24'713.6
2017-Nov-15 18:00N 37°35' W 000°29'713.6
2017-Nov-15 17:30N 37°30' W 000°34'713.6
2017-Nov-15 17:00N 37°26' W 000°41'713.6
2017-Nov-15 16:31N 37°22' W 000°47'813.9
2017-Nov-15 15:58N 37°17' W 000°55'613.6
2017-Nov-15 15:29N 37°13' W 001°01'21513.6
2017-Nov-14 23:38N 36°01' W 005°13'216.1
2017-Nov-14 23:30N 36°00' W 005°16'815.9
2017-Nov-14 23:00N 35°58' W 005°25'9313.6
2017-Nov-14 16:10N 35°29' W 007°14'214.4
2017-Nov-14 16:00N 35°28' W 007°16'714.3
2017-Nov-14 15:30N 35°23' W 007°23'54414.5
2017-Nov-13 02:00N 28°00' W 013°34'714.4
2017-Nov-13 01:31N 27°54' W 013°38'714.1
2017-Nov-13 01:00N 27°48' W 013°42'714.1
2017-Nov-13 00:30N 27°43' W 013°47'713.8
2017-Nov-13 00:00N 27°38' W 013°53'713.6
2017-Nov-12 23:30N 27°33' W 013°58'714.4
2017-Nov-12 23:00N 27°28' W 014°04'714.7
2017-Nov-12 22:30N 27°23' W 014°10'714.9
2017-Nov-12 22:00N 27°17' W 014°16'714.6
2017-Nov-12 21:30N 27°12' W 014°21'714.9
2017-Nov-12 21:00N 27°06' W 014°26'715.0
2017-Nov-12 20:30N 27°01' W 014°32'715.0
2017-Nov-12 20:00N 26°55' W 014°37'815.0
2017-Nov-12 19:29N 26°49' W 014°43'915.2
2017-Nov-12 18:52N 26°42' W 014°50'  

Dump ship's entire track history